Time;durP1;ratioP1;P1;durP2;ratioP2;P2;SDS_P1;SDS_P2;PMS_P1;PMS_P2;Temp;Humidity;BMP_temperature;BMP_pressure;BME280_temperature;BME280_humidity;BME280_pressure;Samples;Min_cycle;Max_cycle;Signal;HPM_P1;HPM_P2
2023/07/02 00:00:42;;;;;;;1.25;1.25;;;;;;;;;;4722492;30;20061;-92
2023/07/02 00:03:21;;;;;;;1.57;1.43;;;;;;;;;;4727345;30;20097;-88
2023/07/02 00:05:51;;;;;;;1.52;1.17;;;;;;;;;;4728800;30;20160;-89
2023/07/02 00:08:20;;;;;;;1.35;1.23;;;;;;;;;;4733037;30;20056;-88
2023/07/02 00:10:47;;;;;;;1.38;1.33;;;;;;;;;;4733444;30;20052;-90
2023/07/02 00:16:19;;;;;;;3.03;0.90;;;;;;;;;;4670604;30;20050;-89
2023/07/02 00:18:52;;;;;;;0.70;0.70;;;;;;;;;;4660541;30;20082;-88
2023/07/02 00:21:33;;;;;;;0.63;0.63;;;;;;;;;;4683919;30;20160;-89
2023/07/02 00:24:29;;;;;;;0.60;0.60;;;;;;;;;;4664352;30;20814;-89
2023/07/02 00:26:57;;;;;;;1.15;0.65;;;;;;;;;;4649281;30;20122;-89
2023/07/02 00:29:25;;;;;;;1.27;0.80;;;;;;;;;;4653760;30;20138;-88
2023/07/02 00:32:32;;;;;;;;;;;;;;;;;;;;;
2023/07/02 00:35:25;;;;;;;0.80;0.80;;;;;;;;;;4635241;30;20051;-88
2023/07/02 00:38:19;;;;;;;0.65;0.65;;;;;;;;;;4633901;30;20058;-90
2023/07/02 00:40:51;;;;;;;0.88;0.88;;;;;;;;;;4649738;30;20066;-91
2023/07/02 00:43:43;;;;;;;1.30;1.10;;;;;;;;;;4642016;30;20065;-91
2023/07/02 00:46:46;;;;;;;0.90;0.90;;;;;;;;;;4647288;30;20061;-92
2023/07/02 00:49:20;;;;;;;0.93;0.93;;;;;;;;;;4645269;30;20059;-89
2023/07/02 00:51:50;;;;;;;1.00;1.00;;;;;;;;;;4646215;30;20051;-88
2023/07/02 00:54:43;;;;;;;0.90;0.90;;;;;;;;;;4646146;30;20053;-92
2023/07/02 00:57:11;;;;;;;0.57;0.57;;;;;;;;;;4658900;30;20055;-89
2023/07/02 00:59:43;;;;;;;0.88;0.88;;;;;;;;;;4644625;30;20059;-90
2023/07/02 01:02:12;;;;;;;0.80;0.80;;;;;;;;;;4645678;30;20078;-91
2023/07/02 01:04:49;;;;;;;2.05;0.70;;;;;;;;;;4645295;30;20054;-89
2023/07/02 01:07:18;;;;;;;0.70;0.70;;;;;;;;;;4646200;30;20412;-89
2023/07/02 01:10:05;;;;;;;0.70;0.70;;;;;;;;;;4638770;30;20419;-88
2023/07/02 01:12:41;;;;;;;0.80;0.77;;;;;;;;;;4659746;30;20153;-89
2023/07/02 01:15:15;;;;;;;0.82;0.82;;;;;;;;;;4657222;30;20051;-90
2023/07/02 01:17:46;;;;;;;0.70;0.70;;;;;;;;;;4643076;30;20047;-88
2023/07/02 01:20:14;;;;;;;0.88;0.88;;;;;;;;;;4645320;30;20061;-88
2023/07/02 01:22:42;;;;;;;1.30;1.13;;;;;;;;;;4643794;30;20086;-89
2023/07/02 01:25:10;;;;;;;1.33;0.80;;;;;;;;;;4655205;30;20497;-88
2023/07/02 01:27:38;;;;;;;0.98;0.95;;;;;;;;;;4643434;30;20062;-89
2023/07/02 01:30:11;;;;;;;0.80;0.80;;;;;;;;;;4642814;30;20050;-89
2023/07/02 01:32:47;;;;;;;0.80;0.80;;;;;;;;;;4656585;30;20055;-89
2023/07/02 01:35:17;;;;;;;0.88;0.88;;;;;;;;;;4642249;30;20047;-88
2023/07/02 01:37:46;;;;;;;0.80;0.80;;;;;;;;;;4642670;30;20043;-89
2023/07/02 01:40:18;;;;;;;0.80;0.80;;;;;;;;;;4643038;30;20070;-89
2023/07/02 01:42:52;;;;;;;0.80;0.80;;;;;;;;;;4640735;30;20089;-89
2023/07/02 01:45:23;;;;;;;0.70;0.70;;;;;;;;;;4654869;30;20055;-89
2023/07/02 01:47:54;;;;;;;0.90;0.90;;;;;;;;;;4630586;30;20724;-88
2023/07/02 01:50:22;;;;;;;1.67;1.00;;;;;;;;;;4643425;30;20314;-90
2023/07/02 01:52:52;;;;;;;0.60;0.60;;;;;;;;;;4639550;30;20146;-88
2023/07/02 01:55:22;;;;;;;0.70;0.70;;;;;;;;;;4655124;30;20059;-90
2023/07/02 01:57:51;;;;;;;0.77;0.75;;;;;;;;;;4643803;30;20091;-91
2023/07/02 02:00:30;;;;;;;0.70;0.70;;;;;;;;;;4641154;30;20047;-89
2023/07/02 02:03:01;;;;;;;0.77;0.70;;;;;;;;;;4639530;30;20063;-89
2023/07/02 02:05:32;;;;;;;1.98;1.15;;;;;;;;;;4655843;30;20055;-89
2023/07/02 02:08:09;;;;;;;0.90;0.90;;;;;;;;;;4655233;30;20058;-90
2023/07/02 02:10:56;;;;;;;1.30;1.13;;;;;;;;;;4654642;30;20059;-90
2023/07/02 02:13:48;;;;;;;1.10;1.10;;;;;;;;;;4643039;30;20063;-90
2023/07/02 02:16:27;;;;;;;0.90;0.90;;;;;;;;;;4655040;30;20054;-90
2023/07/02 02:19:12;;;;;;;0.80;0.80;;;;;;;;;;4642309;30;20062;-89
2023/07/02 02:21:53;;;;;;;0.73;0.73;;;;;;;;;;4656733;30;20051;-89
2023/07/02 02:24:29;;;;;;;0.80;0.80;;;;;;;;;;4641573;30;20722;-89
2023/07/02 02:27:23;;;;;;;;;;;;;;;;;;;;;
2023/07/02 02:30:45;;;;;;;0.70;0.70;;;;;;;;;;4649865;30;20063;-88
2023/07/02 02:33:33;;;;;;;0.70;0.70;;;;;;;;;;4654873;30;20061;-90
2023/07/02 02:36:09;;;;;;;0.95;0.95;;;;;;;;;;4642882;30;20508;-90
2023/07/02 02:38:46;;;;;;;0.88;0.88;;;;;;;;;;4655125;30;20126;-88
2023/07/02 02:41:47;;;;;;;;;;;;;;;;;;;;;
2023/07/02 02:44:57;;;;;;;0.75;0.75;;;;;;;;;;4640821;30;20527;-88
2023/07/02 02:48:00;;;;;;;0.77;0.77;;;;;;;;;;4639982;30;20067;-88
2023/07/02 02:51:05;;;;;;;0.90;0.90;;;;;;;;;;4641229;30;20043;-89
2023/07/02 02:53:58;;;;;;;0.90;0.90;;;;;;;;;;4653460;30;20075;-89
2023/07/02 02:57:01;;;;;;;0.90;0.90;;;;;;;;;;4639624;30;20538;-89
2023/07/02 03:03:12;;;;;;;1.00;1.00;;;;;;;;;;4641873;30;20554;-88
2023/07/02 03:05:45;;;;;;;0.90;0.90;;;;;;;;;;4641118;30;20585;-89
2023/07/02 03:08:27;;;;;;;0.80;0.80;;;;;;;;;;4642455;30;20047;-89
2023/07/02 03:11:18;;;;;;;1.20;1.10;;;;;;;;;;4642812;30;20047;-89
2023/07/02 03:22:20;;;;;;;0.90;0.90;;;;;;;;;;4589957;31;20059;-89
2023/07/02 03:25:13;;;;;;;0.95;0.95;;;;;;;;;;4605299;31;20060;-89
2023/07/02 03:28:20;;;;;;;1.02;0.98;;;;;;;;;;4566970;31;20546;-89
2023/07/02 03:31:10;;;;;;;0.98;0.90;;;;;;;;;;4570487;31;20104;-89
2023/07/02 03:33:56;;;;;;;0.90;0.90;;;;;;;;;;4569758;31;20119;-89
2023/07/02 03:37:02;;;;;;;1.00;1.00;;;;;;;;;;4555508;31;20664;-89
2023/07/02 03:39:33;;;;;;;0.90;0.90;;;;;;;;;;4570396;31;20071;-88
2023/07/02 03:43:04;;;;;;;0.73;0.73;;;;;;;;;;4593671;31;20073;-88
2023/07/02 03:46:03;;;;;;;1.00;1.00;;;;;;;;;;4589536;31;20079;-88
2023/07/02 03:48:45;;;;;;;1.25;1.25;;;;;;;;;;4593927;31;20063;-88
2023/07/02 03:51:18;;;;;;;1.10;1.10;;;;;;;;;;4593174;31;20516;-88
2023/07/02 03:53:51;;;;;;;1.00;1.00;;;;;;;;;;4590770;31;20537;-89
2023/07/02 03:56:53;;;;;;;1.17;1.00;;;;;;;;;;4591572;31;20458;-88
2023/07/02 03:59:24;;;;;;;1.20;1.10;;;;;;;;;;4592898;31;20052;-88
2023/07/02 04:02:23;;;;;;;1.20;1.20;;;;;;;;;;4592502;30;20071;-87
2023/07/02 04:04:59;;;;;;;0.90;0.90;;;;;;;;;;4614265;30;20076;-88
2023/07/02 04:07:28;;;;;;;1.00;1.00;;;;;;;;;;4657686;30;20799;-87
2023/07/02 04:09:57;;;;;;;1.13;1.00;;;;;;;;;;4644458;30;20051;-88
2023/07/02 04:12:25;;;;;;;0.98;0.98;;;;;;;;;;4644192;30;20051;-88
2023/07/02 04:14:53;;;;;;;1.27;1.17;;;;;;;;;;4644871;30;20059;-89
2023/07/02 04:17:31;;;;;;;1.23;1.13;;;;;;;;;;4644539;30;20478;-87
2023/07/02 04:20:06;;;;;;;1.20;1.15;;;;;;;;;;4643856;30;20058;-87
2023/07/02 04:22:37;;;;;;;1.25;1.17;;;;;;;;;;4644274;30;20102;-87
2023/07/02 04:25:14;;;;;;;0.93;0.93;;;;;;;;;;4642803;30;20059;-87
2023/07/02 04:28:04;;;;;;;0.98;0.98;;;;;;;;;;4641276;30;20141;-87
2023/07/02 04:30:36;;;;;;;1.52;1.42;;;;;;;;;;4644341;30;20047;-88
2023/07/02 04:33:14;;;;;;;1.60;1.50;;;;;;;;;;4642193;30;20556;-89
2023/07/02 04:35:43;;;;;;;1.20;1.20;;;;;;;;;;4643023;30;20066;-87
2023/07/02 04:38:12;;;;;;;2.17;1.10;;;;;;;;;;4640703;30;20051;-87
2023/07/02 04:40:44;;;;;;;1.50;1.40;;;;;;;;;;4643233;30;20569;-87
2023/07/02 04:43:12;;;;;;;1.23;1.20;;;;;;;;;;4642983;30;20147;-87
2023/07/02 04:45:44;;;;;;;1.27;1.27;;;;;;;;;;4641726;30;20227;-87
2023/07/02 04:48:14;;;;;;;1.17;1.17;;;;;;;;;;4645763;30;20051;-87
2023/07/02 04:50:47;;;;;;;1.70;1.60;;;;;;;;;;4629050;30;20051;-86
2023/07/02 04:53:18;;;;;;;1.00;1.00;;;;;;;;;;4642691;30;20058;-88
2023/07/02 04:55:49;;;;;;;;;;;;;;;;;;4643941;30;20069;-87
2023/07/02 04:58:18;;;;;;;1.30;1.30;;;;;;;;;;4642437;30;19932;-87
2023/07/02 05:00:45;;;;;;;1.60;1.35;;;;;;;;;;4642382;30;20576;-87
2023/07/02 05:03:14;;;;;;;1.77;1.67;;;;;;;;;;4644795;30;20062;-87
2023/07/02 05:05:45;;;;;;;1.70;1.60;;;;;;;;;;4644776;30;20071;-87
2023/07/02 05:08:15;;;;;;;1.40;1.38;;;;;;;;;;4643754;30;20055;-88
2023/07/02 05:10:45;;;;;;;1.05;1.05;;;;;;;;;;4642088;30;20099;-88
2023/07/02 05:13:13;;;;;;;1.73;1.63;;;;;;;;;;4644654;30;20057;-90
2023/07/02 05:15:48;;;;;;;1.65;1.55;;;;;;;;;;4644209;30;20057;-88
2023/07/02 05:18:19;;;;;;;1.67;1.58;;;;;;;;;;4643408;30;20054;-89
2023/07/02 05:20:50;;;;;;;1.50;1.40;;;;;;;;;;4643790;30;20161;-88
2023/07/02 05:23:52;;;;;;;;;;;;;;;;;;;;;
2023/07/02 05:27:10;;;;;;;1.35;1.35;;;;;;;;;;4644563;30;20047;-89
2023/07/02 05:29:38;;;;;;;1.33;1.33;;;;;;;;;;4644525;30;20059;-88
2023/07/02 05:32:31;;;;;;;1.40;1.40;;;;;;;;;;4648346;30;20055;-90
2023/07/02 05:35:03;;;;;;;1.13;1.13;;;;;;;;;;4642326;30;20051;-87
2023/07/02 05:37:39;;;;;;;1.40;1.30;;;;;;;;;;4641174;30;20047;-88
2023/07/02 05:40:10;;;;;;;1.48;1.40;;;;;;;;;;4642894;30;20055;-88
2023/07/02 05:42:42;;;;;;;1.58;1.48;;;;;;;;;;4645628;30;20055;-89
2023/07/02 05:45:10;;;;;;;1.20;1.20;;;;;;;;;;4651452;30;20098;-87
2023/07/02 05:47:38;;;;;;;1.10;1.00;;;;;;;;;;4670645;30;20049;-88
2023/07/02 05:50:11;;;;;;;1.27;1.23;;;;;;;;;;4649875;30;20081;-87
2023/07/02 05:52:40;;;;;;;1.17;1.15;;;;;;;;;;4644698;30;20574;-87
2023/07/02 05:55:10;;;;;;;1.08;1.08;;;;;;;;;;4645495;30;20058;-87
2023/07/02 05:57:45;;;;;;;1.20;1.20;;;;;;;;;;4648017;30;20043;-87
2023/07/02 06:00:13;;;;;;;1.08;1.08;;;;;;;;;;4655473;30;20058;-87
2023/07/02 06:02:43;;;;;;;1.30;1.30;;;;;;;;;;4643061;30;20490;-88
2023/07/02 06:05:13;;;;;;;1.30;1.30;;;;;;;;;;4641451;30;20059;-87
2023/07/02 06:07:48;;;;;;;1.10;1.10;;;;;;;;;;4656827;30;20064;-88
2023/07/02 06:10:18;;;;;;;1.40;1.23;;;;;;;;;;4642023;30;20051;-88
2023/07/02 06:12:48;;;;;;;1.58;1.48;;;;;;;;;;4648871;30;20043;-87
2023/07/02 06:15:28;;;;;;;1.70;1.60;;;;;;;;;;4642323;30;20046;-88
2023/07/02 06:17:56;;;;;;;1.45;1.35;;;;;;;;;;4642795;30;20051;-87
2023/07/02 06:20:24;;;;;;;0.90;0.90;;;;;;;;;;4642588;30;20142;-87
2023/07/02 06:22:51;;;;;;;1.08;1.00;;;;;;;;;;4639485;30;20063;-87
2023/07/02 06:25:20;;;;;;;2.83;1.27;;;;;;;;;;4625408;30;20062;-87
2023/07/02 06:27:58;;;;;;;;;;;;;;;;;;;;;
2023/07/02 06:30:29;;;;;;;;;;;;;;;;;;4639659;30;20515;-88
2023/07/02 06:33:17;;;;;;;1.48;1.20;;;;;;;;;;4642817;30;19928;-91
2023/07/02 06:35:53;;;;;;;1.20;1.20;;;;;;;;;;4650226;30;20058;-86
2023/07/02 06:38:47;;;;;;;1.50;1.40;;;;;;;;;;4650115;30;20074;-89
2023/07/02 06:41:15;;;;;;;1.37;1.30;;;;;;;;;;4651248;30;20434;-86
2023/07/02 06:43:51;;;;;;;1.30;1.30;;;;;;;;;;4650487;30;20087;-88
2023/07/02 06:46:22;;;;;;;1.20;1.20;;;;;;;;;;4650024;30;20066;-85
2023/07/02 06:48:50;;;;;;;1.23;1.10;;;;;;;;;;4652958;30;20058;-88
2023/07/02 06:51:29;;;;;;;3.42;1.50;;;;;;;;;;4647424;30;20055;-91
2023/07/02 06:54:30;;;;;;;1.10;1.10;;;;;;;;;;4641129;30;20063;-91
2023/07/02 06:57:16;;;;;;;3.70;1.30;;;;;;;;;;4656889;30;20061;-88
2023/07/02 07:00:09;;;;;;;1.10;1.10;;;;;;;;;;4657071;30;20059;-89
2023/07/02 07:06:05;;;;;;;1.58;1.40;;;;;;;;;;4644217;30;20066;-89
2023/07/02 07:09:41;;;;;;;1.42;1.30;;;;;;;;;;4645187;30;20078;-94
2023/07/02 07:12:11;;;;;;;1.42;1.30;;;;;;;;;;4640443;30;20047;-87
2023/07/02 07:14:59;;;;;;;1.30;1.20;;;;;;;;;;4641014;30;20055;-90
2023/07/02 07:17:51;;;;;;;1.20;1.20;;;;;;;;;;4639310;30;20486;-88
2023/07/02 07:20:21;;;;;;;1.30;1.25;;;;;;;;;;4639550;30;20058;-87
2023/07/02 07:22:51;;;;;;;1.00;1.00;;;;;;;;;;4637413;30;20553;-88
2023/07/02 07:28:36;;;;;;;1.33;1.20;;;;;;;;;;4643130;30;20118;-88
2023/07/02 07:31:04;;;;;;;1.40;1.30;;;;;;;;;;4647306;30;20067;-87
2023/07/02 07:33:34;;;;;;;1.00;1.00;;;;;;;;;;4637806;30;20047;-87
2023/07/02 07:36:03;;;;;;;1.48;1.38;;;;;;;;;;4640620;30;20074;-88
2023/07/02 07:38:58;;;;;;;1.40;1.30;;;;;;;;;;4640809;30;20106;-92
2023/07/02 07:41:26;;;;;;;1.00;1.00;;;;;;;;;;4639394;30;20074;-87
2023/07/02 07:43:54;;;;;;;1.17;1.08;;;;;;;;;;4635965;30;20109;-87
2023/07/02 07:46:22;;;;;;;2.63;1.10;;;;;;;;;;4641048;30;20137;-87
2023/07/02 07:48:51;;;;;;;1.00;1.00;;;;;;;;;;4643125;30;20067;-88
2023/07/02 07:51:19;;;;;;;1.13;1.02;;;;;;;;;;4638269;30;20058;-87
2023/07/02 07:53:49;;;;;;;1.05;0.95;;;;;;;;;;4638484;30;20059;-87
2023/07/02 07:56:27;;;;;;;1.13;1.10;;;;;;;;;;4639489;30;21816;-88
2023/07/02 07:58:55;;;;;;;0.70;0.70;;;;;;;;;;4641054;30;20058;-87
2023/07/02 08:01:25;;;;;;;1.85;1.17;;;;;;;;;;4651889;30;20316;-86
2023/07/02 08:03:52;;;;;;;1.10;1.10;;;;;;;;;;4640298;30;20478;-86
2023/07/02 08:06:23;;;;;;;2.13;1.10;;;;;;;;;;4644714;30;20490;-87
2023/07/02 08:08:56;;;;;;;1.17;1.08;;;;;;;;;;4653801;30;20059;-88
2023/07/02 08:12:21;;;;;;;;;;;;;;;;;;;;;
2023/07/02 08:15:27;;;;;;;1.10;1.10;;;;;;;;;;4643410;30;20152;-90
2023/07/02 08:18:21;;;;;;;1.40;1.30;;;;;;;;;;4645266;30;20035;-89
2023/07/02 08:21:06;;;;;;;1.15;1.08;;;;;;;;;;4656009;30;20059;-89
2023/07/02 08:23:34;;;;;;;1.00;1.00;;;;;;;;;;4640333;30;20750;-86
2023/07/02 08:26:02;;;;;;;1.30;1.20;;;;;;;;;;4634199;30;20091;-87
2023/07/02 08:28:30;;;;;;;0.93;0.93;;;;;;;;;;4640936;30;20058;-86
2023/07/02 08:30:59;;;;;;;1.10;1.10;;;;;;;;;;4645851;30;20527;-87
2023/07/02 08:33:26;;;;;;;1.73;1.27;;;;;;;;;;4646611;30;20051;-87
2023/07/02 08:36:03;;;;;;;1.38;1.27;;;;;;;;;;4646463;30;20075;-90
2023/07/02 08:41:24;;;;;;;1.50;1.50;;;;;;;;;;4646744;30;20113;-86
2023/07/02 08:43:54;;;;;;;1.67;1.58;;;;;;;;;;4638169;30;20086;-87
2023/07/02 08:46:21;;;;;;;1.30;1.20;;;;;;;;;;4642260;30;20059;-86
2023/07/02 08:48:49;;;;;;;1.40;1.30;;;;;;;;;;4640241;30;20309;-87
2023/07/02 08:51:16;;;;;;;1.35;1.25;;;;;;;;;;4642907;30;20054;-86
2023/07/02 08:53:48;;;;;;;1.77;1.50;;;;;;;;;;4642556;30;20055;-85
2023/07/02 08:56:15;;;;;;;1.38;1.27;;;;;;;;;;4656335;30;20078;-86
2023/07/02 08:58:44;;;;;;;1.20;1.20;;;;;;;;;;4655040;30;20072;-84
2023/07/02 09:01:15;;;;;;;4.03;2.17;;;;;;;;;;4662565;30;20055;-87
2023/07/02 09:03:51;;;;;;;2.00;1.90;;;;;;;;;;4640394;30;20058;-86
2023/07/02 09:06:24;;;;;;;2.40;2.20;;;;;;;;;;4631609;30;20054;-86
2023/07/02 09:09:20;;;;;;;2.08;1.88;;;;;;;;;;4640550;30;20076;-88
2023/07/02 09:12:38;;;;;;;2.50;2.30;;;;;;;;;;4658520;30;20059;-86
2023/07/02 09:15:27;;;;;;;2.60;2.40;;;;;;;;;;4645819;30;20435;-89
2023/07/02 09:17:55;;;;;;;1.85;1.75;;;;;;;;;;4643249;30;20077;-86
2023/07/02 09:20:55;;;;;;;2.88;2.33;;;;;;;;;;4644298;30;20058;-89
2023/07/02 09:23:39;;;;;;;2.73;2.53;;;;;;;;;;4644579;30;20076;-88
2023/07/02 09:27:15;;;;;;;9.50;2.47;;;;;;;;;;4642280;30;20302;-92
2023/07/02 09:30:05;;;;;;;2.78;2.58;;;;;;;;;;4656883;30;20425;-94
2023/07/02 09:32:48;;;;;;;2.67;2.30;;;;;;;;;;4642710;30;20508;-88
2023/07/02 09:35:22;;;;;;;2.05;1.90;;;;;;;;;;4638659;30;20174;-90
2023/07/02 09:38:00;;;;;;;2.10;2.00;;;;;;;;;;4640061;30;20059;-88
2023/07/02 09:41:05;;;;;;;;;;;;;;;;;;;;;
2023/07/02 09:43:34;;;;;;;3.78;2.50;;;;;;;;;;4635885;30;20047;-88
2023/07/02 09:46:10;;;;;;;3.63;2.55;;;;;;;;;;4654358;30;20141;-88
2023/07/02 09:48:44;;;;;;;2.88;2.58;;;;;;;;;;4640844;30;20059;-87
2023/07/02 09:51:22;;;;;;;2.53;2.05;;;;;;;;;;4639678;30;20059;-89
2023/07/02 09:54:27;;;;;;;;;;;;;;;;;;;;;
2023/07/02 09:58:02;;;;;;;3.40;2.63;;;;;;;;;;4639773;30;20134;-87
2023/07/02 10:09:40;;;;;;;5.50;2.40;;;;;;;;;;4621388;30;20058;-88
2023/07/02 10:12:26;;;;;;;2.40;2.20;;;;;;;;;;4641715;30;20220;-88
2023/07/02 10:16:05;;;;;;;1.85;1.75;;;;;;;;;;4640173;30;20058;-86
2023/07/02 10:19:53;;;;;;;1.92;1.83;;;;;;;;;;4640292;30;20062;-89
2023/07/02 10:22:52;;;;;;;2.28;2.10;;;;;;;;;;4641247;30;20059;-88
2023/07/02 10:26:18;;;;;;;2.17;1.98;;;;;;;;;;4638653;30;20438;-88
2023/07/02 10:29:04;;;;;;;1.73;1.63;;;;;;;;;;4638877;30;20661;-88
2023/07/02 10:31:47;;;;;;;2.63;1.85;;;;;;;;;;4713048;24;20152;-79
2023/07/02 10:34:15;;;;;;;1.60;1.50;;;;;;;;;;4741211;30;20526;-78
2023/07/02 10:36:43;;;;;;;2.40;1.80;;;;;;;;;;4736384;30;20048;-78
2023/07/02 10:39:10;;;;;;;2.63;1.85;;;;;;;;;;4739575;30;20057;-81
2023/07/02 10:41:38;;;;;;;3.00;2.58;;;;;;;;;;4729037;30;20080;-79
2023/07/02 10:44:06;;;;;;;2.50;2.08;;;;;;;;;;4736272;30;20527;-79
2023/07/02 10:46:34;;;;;;;2.45;2.15;;;;;;;;;;4729841;30;20063;-79
2023/07/02 10:49:01;;;;;;;2.17;1.95;;;;;;;;;;4730981;30;20134;-80
2023/07/02 10:51:29;;;;;;;2.40;2.10;;;;;;;;;;4731715;30;20413;-81
2023/07/02 10:53:58;;;;;;;2.00;1.90;;;;;;;;;;4726965;30;20057;-79
2023/07/02 10:56:29;;;;;;;2.72;2.53;;;;;;;;;;4727194;30;20134;-80
2023/07/02 10:58:56;;;;;;;2.63;2.42;;;;;;;;;;4728458;30;20056;-80
2023/07/02 11:01:24;;;;;;;2.17;2.00;;;;;;;;;;4738946;30;20534;-81
2023/07/02 11:04:03;;;;;;;2.22;2.10;;;;;;;;;;4730078;30;20056;-81
2023/07/02 11:06:34;;;;;;;2.45;2.25;;;;;;;;;;4728895;30;20151;-79
2023/07/02 11:09:03;;;;;;;2.50;2.30;;;;;;;;;;4729211;30;20511;-80
2023/07/02 11:11:31;;;;;;;1.98;1.88;;;;;;;;;;4728378;30;20056;-81
2023/07/02 11:13:58;;;;;;;3.33;2.22;;;;;;;;;;4735939;30;20545;-79
2023/07/02 11:16:28;;;;;;;2.17;1.98;;;;;;;;;;4730664;30;20044;-80
2023/07/02 11:19:10;;;;;;;2.53;2.03;;;;;;;;;;4733516;30;20157;-79
2023/07/02 11:21:37;;;;;;;2.05;1.95;;;;;;;;;;4732136;30;20072;-80
2023/07/02 11:24:08;;;;;;;2.30;2.10;;;;;;;;;;4731852;30;20461;-79
2023/07/02 11:26:39;;;;;;;2.22;2.05;;;;;;;;;;4730019;30;20052;-78
2023/07/02 11:29:13;;;;;;;2.33;2.07;;;;;;;;;;4730632;30;20076;-78
2023/07/02 11:31:40;;;;;;;2.65;1.70;;;;;;;;;;4730655;30;20314;-77
2023/07/02 11:34:17;;;;;;;2.13;2.00;;;;;;;;;;4729318;30;20518;-81
2023/07/02 11:36:46;;;;;;;2.33;2.13;;;;;;;;;;4732687;30;20214;-78
2023/07/02 11:39:15;;;;;;;2.38;2.10;;;;;;;;;;4732733;30;20574;-78
2023/07/02 11:41:43;;;;;;;2.50;2.30;;;;;;;;;;4733755;30;20056;-79
2023/07/02 11:44:11;;;;;;;2.30;2.10;;;;;;;;;;4729654;30;20057;-79
2023/07/02 11:46:39;;;;;;;2.85;2.50;;;;;;;;;;4733486;30;20060;-80
2023/07/02 11:49:08;;;;;;;2.70;2.50;;;;;;;;;;4734128;30;20111;-79
2023/07/02 11:51:39;;;;;;;2.65;2.45;;;;;;;;;;4738509;30;20554;-80
2023/07/02 11:54:06;;;;;;;3.17;2.67;;;;;;;;;;4737959;30;20126;-79
2023/07/02 11:56:34;;;;;;;2.30;2.10;;;;;;;;;;4736885;30;20440;-79
2023/07/02 11:59:02;;;;;;;1.90;1.80;;;;;;;;;;4733190;30;20665;-79
2023/07/02 12:01:31;;;;;;;1.60;1.50;;;;;;;;;;4733395;30;20057;-78
2023/07/02 12:03:59;;;;;;;2.85;2.65;;;;;;;;;;4734651;30;20087;-78
2023/07/02 12:06:27;;;;;;;3.88;2.30;;;;;;;;;;4733030;30;20068;-79
2023/07/02 12:08:54;;;;;;;2.78;2.58;;;;;;;;;;4739001;30;20216;-81
2023/07/02 12:11:22;;;;;;;3.28;2.90;;;;;;;;;;4743131;30;20056;-80
2023/07/02 12:13:50;;;;;;;3.05;2.80;;;;;;;;;;4744563;30;20044;-80
2023/07/02 12:16:17;;;;;;;2.53;2.35;;;;;;;;;;4740132;30;20499;-80
2023/07/02 12:18:45;;;;;;;2.80;2.60;;;;;;;;;;4745715;30;20052;-79
2023/07/02 12:21:12;;;;;;;2.83;2.60;;;;;;;;;;4743971;30;20126;-80
2023/07/02 12:23:40;;;;;;;3.05;2.78;;;;;;;;;;4738294;30;20569;-80
2023/07/02 12:26:07;;;;;;;3.22;3.03;;;;;;;;;;4744500;30;20080;-79
2023/07/02 12:28:35;;;;;;;3.05;2.78;;;;;;;;;;4741244;30;20060;-79
2023/07/02 12:31:02;;;;;;;2.92;2.65;;;;;;;;;;4740659;30;20070;-79
2023/07/02 12:33:30;;;;;;;3.65;3.22;;;;;;;;;;4740219;30;20044;-79
2023/07/02 12:35:59;;;;;;;2.97;2.78;;;;;;;;;;4743211;30;20312;-79
2023/07/02 12:38:26;;;;;;;3.22;3.03;;;;;;;;;;4736549;30;21783;-79
2023/07/02 12:40:54;;;;;;;3.88;3.22;;;;;;;;;;4734041;30;20117;-79
2023/07/02 12:43:21;;;;;;;3.42;3.13;;;;;;;;;;4736101;30;20071;-79
2023/07/02 12:45:49;;;;;;;2.80;2.60;;;;;;;;;;4729031;30;20134;-78
2023/07/02 12:48:17;;;;;;;2.45;2.25;;;;;;;;;;4735640;30;20048;-79
2023/07/02 12:50:58;;;;;;;2.30;2.20;;;;;;;;;;4736733;30;20512;-79
2023/07/02 12:53:26;;;;;;;2.20;2.05;;;;;;;;;;4751376;30;20088;-80
2023/07/02 12:55:57;;;;;;;2.55;2.35;;;;;;;;;;4743865;30;20393;-79
2023/07/02 12:58:25;;;;;;;2.60;2.40;;;;;;;;;;4738063;30;20048;-82
2023/07/02 13:00:52;;;;;;;2.75;2.53;;;;;;;;;;4738230;30;20060;-78
2023/07/02 13:03:20;;;;;;;3.20;2.90;;;;;;;;;;4740611;30;20151;-76
2023/07/02 13:05:48;;;;;;;2.60;2.40;;;;;;;;;;4745364;30;20052;-77
2023/07/02 13:08:16;;;;;;;3.58;2.60;;;;;;;;;;4744519;30;20401;-77
2023/07/02 13:10:43;;;;;;;3.17;2.70;;;;;;;;;;4732901;30;20071;-77
2023/07/02 13:13:11;;;;;;;2.88;2.65;;;;;;;;;;4741939;30;20088;-77
2023/07/02 13:15:50;;;;;;;4.10;2.97;;;;;;;;;;4736901;30;20135;-77
2023/07/02 13:18:18;;;;;;;3.67;3.38;;;;;;;;;;4736381;30;20061;-77
2023/07/02 13:20:45;;;;;;;3.10;2.90;;;;;;;;;;4738744;30;20055;-77
2023/07/02 13:23:12;;;;;;;2.92;2.70;;;;;;;;;;4742844;30;20075;-78
2023/07/02 13:25:40;;;;;;;3.25;2.83;;;;;;;;;;4746058;30;20329;-77
2023/07/02 13:28:07;;;;;;;3.45;2.90;;;;;;;;;;4743810;30;20333;-79
2023/07/02 13:30:35;;;;;;;2.90;2.65;;;;;;;;;;4741133;30;20052;-77
2023/07/02 13:33:02;;;;;;;3.25;2.70;;;;;;;;;;4746211;30;20060;-77
2023/07/02 13:35:31;;;;;;;3.35;2.95;;;;;;;;;;4741285;30;20499;-77
2023/07/02 13:38:03;;;;;;;3.50;3.20;;;;;;;;;;4743436;30;20084;-76
2023/07/02 13:40:31;;;;;;;3.10;2.90;;;;;;;;;;4738253;30;20468;-77
2023/07/02 13:42:59;;;;;;;3.25;2.97;;;;;;;;;;4742403;30;20423;-77
2023/07/02 13:45:28;;;;;;;2.80;2.60;;;;;;;;;;4734735;30;20076;-77
2023/07/02 13:47:55;;;;;;;4.13;3.72;;;;;;;;;;4741725;30;20068;-77
2023/07/02 13:50:23;;;;;;;3.55;3.25;;;;;;;;;;4739917;30;20131;-77
2023/07/02 13:52:51;;;;;;;3.35;3.15;;;;;;;;;;4736244;30;20189;-77
2023/07/02 13:55:18;;;;;;;3.15;2.90;;;;;;;;;;4740342;30;20322;-77
2023/07/02 13:57:46;;;;;;;3.33;3.03;;;;;;;;;;4737689;30;20052;-77
2023/07/02 14:00:14;;;;;;;3.53;3.05;;;;;;;;;;4738228;30;20057;-77
2023/07/02 14:02:41;;;;;;;2.65;2.45;;;;;;;;;;4740570;30;20097;-77
2023/07/02 14:05:09;;;;;;;3.97;2.60;;;;;;;;;;4729666;30;20064;-77
2023/07/02 14:07:36;;;;;;;2.70;2.50;;;;;;;;;;4735237;30;20056;-77
2023/07/02 14:10:04;;;;;;;3.10;2.80;;;;;;;;;;4735733;30;20083;-77
2023/07/02 14:12:32;;;;;;;3.65;2.97;;;;;;;;;;4736859;30;20519;-77
2023/07/02 14:14:59;;;;;;;2.80;2.60;;;;;;;;;;4735531;30;20048;-77
2023/07/02 14:17:26;;;;;;;3.13;2.90;;;;;;;;;;4744458;30;20056;-77
2023/07/02 14:19:54;;;;;;;2.92;2.50;;;;;;;;;;4736327;30;20071;-77
2023/07/02 14:22:21;;;;;;;2.88;2.67;;;;;;;;;;4737536;30;20503;-77
2023/07/02 14:24:49;;;;;;;3.47;3.17;;;;;;;;;;4748209;30;20116;-79
2023/07/02 14:27:16;;;;;;;3.03;2.83;;;;;;;;;;4746906;24;20060;-76
2023/07/02 14:29:44;;;;;;;2.80;2.60;;;;;;;;;;4732703;30;20052;-78
2023/07/02 14:32:11;;;;;;;2.90;2.70;;;;;;;;;;4707709;30;20416;-77
2023/07/02 14:34:39;;;;;;;2.55;2.40;;;;;;;;;;4699246;30;20084;-79
2023/07/02 14:37:06;;;;;;;3.00;2.60;;;;;;;;;;4701426;30;20057;-78
2023/07/02 14:39:34;;;;;;;3.22;2.92;;;;;;;;;;4701767;30;20057;-77
2023/07/02 14:42:01;;;;;;;4.03;3.72;;;;;;;;;;4691220;30;20053;-79
2023/07/02 14:44:28;;;;;;;3.13;2.80;;;;;;;;;;4698207;30;20461;-77
2023/07/02 14:46:56;;;;;;;3.03;2.83;;;;;;;;;;4703147;30;20057;-78
2023/07/02 14:49:27;;;;;;;2.85;2.65;;;;;;;;;;4701169;30;20053;-77
2023/07/02 14:51:54;;;;;;;3.35;3.05;;;;;;;;;;4703649;30;20063;-76
2023/07/02 14:54:22;;;;;;;4.65;3.15;;;;;;;;;;4697796;30;20708;-77
2023/07/02 14:56:49;;;;;;;2.90;2.70;;;;;;;;;;4696179;30;20060;-79
2023/07/02 14:59:17;;;;;;;4.50;2.97;;;;;;;;;;4704983;30;20049;-78
2023/07/02 15:01:44;;;;;;;3.10;2.90;;;;;;;;;;4705210;30;20071;-77
2023/07/02 15:04:12;;;;;;;3.45;2.80;;;;;;;;;;4706993;30;20065;-79
2023/07/02 15:06:40;;;;;;;2.63;2.42;;;;;;;;;;4699911;30;20146;-78
2023/07/02 15:09:07;;;;;;;2.20;2.10;;;;;;;;;;4695607;30;20455;-78
2023/07/02 15:11:36;;;;;;;2.72;2.53;;;;;;;;;;4694183;30;20057;-76
2023/07/02 15:14:03;;;;;;;2.90;2.70;;;;;;;;;;4700813;30;20056;-78
2023/07/02 15:16:30;;;;;;;3.50;3.20;;;;;;;;;;4699369;30;20050;-77
2023/07/02 15:18:58;;;;;;;3.38;3.08;;;;;;;;;;4703040;30;20087;-77
2023/07/02 15:21:26;;;;;;;4.40;2.97;;;;;;;;;;4702229;30;20454;-77
2023/07/02 15:23:53;;;;;;;3.10;2.90;;;;;;;;;;4699871;30;20088;-77
2023/07/02 15:26:21;;;;;;;4.25;3.13;;;;;;;;;;4704010;30;20061;-77
2023/07/02 15:28:48;;;;;;;3.00;2.80;;;;;;;;;;4702884;30;20101;-76
2023/07/02 15:31:16;;;;;;;3.75;3.30;;;;;;;;;;4702546;30;20049;-76
2023/07/02 15:33:46;;;;;;;3.17;2.97;;;;;;;;;;4703886;30;20062;-76
2023/07/02 15:36:14;;;;;;;3.28;2.97;;;;;;;;;;4698098;30;20052;-77
2023/07/02 15:38:41;;;;;;;3.83;3.53;;;;;;;;;;4708539;30;20144;-77
2023/07/02 15:41:11;;;;;;;3.00;2.70;;;;;;;;;;4708402;30;20053;-78
2023/07/02 15:43:39;;;;;;;4.40;3.40;;;;;;;;;;4702545;30;20063;-76
2023/07/02 15:46:07;;;;;;;3.25;3.00;;;;;;;;;;4703720;30;20397;-76
2023/07/02 15:48:35;;;;;;;3.20;2.90;;;;;;;;;;4709520;30;20595;-77
2023/07/02 15:51:03;;;;;;;3.25;3.00;;;;;;;;;;4704566;30;20088;-77
2023/07/02 15:53:32;;;;;;;2.85;2.65;;;;;;;;;;4693954;30;20054;-77
2023/07/02 15:55:59;;;;;;;3.80;3.50;;;;;;;;;;4696503;30;20104;-77
2023/07/02 15:58:29;;;;;;;4.68;3.33;;;;;;;;;;4705735;30;20053;-77
2023/07/02 16:01:09;;;;;;;3.33;3.03;;;;;;;;;;4695021;30;20054;-77
2023/07/02 16:03:36;;;;;;;3.90;3.58;;;;;;;;;;4697919;30;20104;-76
2023/07/02 16:06:04;;;;;;;4.10;3.70;;;;;;;;;;4705434;30;20045;-76
2023/07/02 16:08:32;;;;;;;4.40;4.00;;;;;;;;;;4706979;30;20077;-76
2023/07/02 16:10:59;;;;;;;5.13;4.22;;;;;;;;;;4706558;30;20114;-76
2023/07/02 16:13:27;;;;;;;4.22;3.83;;;;;;;;;;4707559;30;20052;-77